National Weather Service Raw Text Product

Displaying AFOS PIL: TAFFOD Received: 2017-12-07 11:34 UTC


806 
FTUS43 KDMX 071134
TAFFOD
TAF
KFOD 071134Z 0712/0812 30008KT P6SM SKC
     FM071800 28011G18KT P6SM FEW250
     FM080100 25007KT P6SM SCT250=